sensor_id;sensor_type;location;lat;lon;timestamp;P1;durP1;ratioP1;P2;durP2;ratioP2
32964;SDS011;19317;48.226;11.686;2024-03-22T00:00:24;19.23;;;15.03;;
32964;SDS011;19317;48.226;11.686;2024-03-22T00:05:15;19.97;;;14.70;;
32964;SDS011;19317;48.226;11.686;2024-03-22T00:10:06;17.00;;;13.73;;
32964;SDS011;19317;48.226;11.686;2024-03-22T00:14:57;15.60;;;13.90;;
32964;SDS011;19317;48.226;11.686;2024-03-22T00:19:48;16.70;;;13.73;;
32964;SDS011;19317;48.226;11.686;2024-03-22T00:24:39;15.47;;;13.60;;
32964;SDS011;19317;48.226;11.686;2024-03-22T00:29:30;16.83;;;14.00;;
32964;SDS011;19317;48.226;11.686;2024-03-22T00:34:21;17.07;;;13.03;;
32964;SDS011;19317;48.226;11.686;2024-03-22T00:39:12;15.57;;;13.27;;
32964;SDS011;19317;48.226;11.686;2024-03-22T00:44:03;14.47;;;12.63;;
32964;SDS011;19317;48.226;11.686;2024-03-22T00:48:54;14.80;;;13.17;;
32964;SDS011;19317;48.226;11.686;2024-03-22T00:53:44;16.70;;;13.90;;
32964;SDS011;19317;48.226;11.686;2024-03-22T00:58:35;16.40;;;12.73;;
32964;SDS011;19317;48.226;11.686;2024-03-22T01:03:26;14.63;;;12.77;;
32964;SDS011;19317;48.226;11.686;2024-03-22T01:08:17;15.60;;;12.77;;
32964;SDS011;19317;48.226;11.686;2024-03-22T01:13:08;15.23;;;13.00;;
32964;SDS011;19317;48.226;11.686;2024-03-22T01:17:59;14.53;;;12.83;;
32964;SDS011;19317;48.226;11.686;2024-03-22T01:22:50;14.23;;;12.27;;
32964;SDS011;19317;48.226;11.686;2024-03-22T01:27:41;14.77;;;12.73;;
32964;SDS011;19317;48.226;11.686;2024-03-22T01:32:31;14.23;;;12.50;;
32964;SDS011;19317;48.226;11.686;2024-03-22T01:37:22;14.30;;;12.77;;
32964;SDS011;19317;48.226;11.686;2024-03-22T01:42:13;14.20;;;12.70;;
32964;SDS011;19317;48.226;11.686;2024-03-22T01:47:04;15.70;;;12.83;;
32964;SDS011;19317;48.226;11.686;2024-03-22T01:51:55;14.60;;;13.10;;
32964;SDS011;19317;48.226;11.686;2024-03-22T01:56:46;14.57;;;13.07;;
32964;SDS011;19317;48.226;11.686;2024-03-22T02:01:37;15.57;;;13.60;;
32964;SDS011;19317;48.226;11.686;2024-03-22T02:06:28;14.47;;;12.90;;
32964;SDS011;19317;48.226;11.686;2024-03-22T02:11:19;14.43;;;12.93;;
32964;SDS011;19317;48.226;11.686;2024-03-22T02:16:10;15.93;;;12.73;;
32964;SDS011;19317;48.226;11.686;2024-03-22T02:21:01;14.07;;;12.57;;
32964;SDS011;19317;48.226;11.686;2024-03-22T02:25:52;14.23;;;12.53;;
32964;SDS011;19317;48.226;11.686;2024-03-22T02:30:43;12.43;;;11.13;;
32964;SDS011;19317;48.226;11.686;2024-03-22T02:35:34;12.00;;;10.80;;
32964;SDS011;19317;48.226;11.686;2024-03-22T02:40:25;11.83;;;10.63;;
32964;SDS011;19317;48.226;11.686;2024-03-22T02:45:16;12.60;;;11.03;;
32964;SDS011;19317;48.226;11.686;2024-03-22T02:50:07;13.63;;;12.23;;
32964;SDS011;19317;48.226;11.686;2024-03-22T02:54:58;12.37;;;11.17;;
32964;SDS011;19317;48.226;11.686;2024-03-22T02:59:48;13.87;;;11.57;;
32964;SDS011;19317;48.226;11.686;2024-03-22T03:04:39;14.17;;;12.13;;
32964;SDS011;19317;48.226;11.686;2024-03-22T03:09:30;15.53;;;12.30;;
32964;SDS011;19317;48.226;11.686;2024-03-22T03:14:21;15.93;;;12.37;;
32964;SDS011;19317;48.226;11.686;2024-03-22T03:19:12;14.60;;;11.80;;
32964;SDS011;19317;48.226;11.686;2024-03-22T03:24:03;15.63;;;12.13;;
32964;SDS011;19317;48.226;11.686;2024-03-22T03:28:54;15.30;;;12.90;;
32964;SDS011;19317;48.226;11.686;2024-03-22T03:33:45;14.33;;;12.83;;
32964;SDS011;19317;48.226;11.686;2024-03-22T03:38:35;14.37;;;12.13;;
32964;SDS011;19317;48.226;11.686;2024-03-22T03:43:26;14.73;;;12.93;;
32964;SDS011;19317;48.226;11.686;2024-03-22T03:48:17;17.70;;;13.50;;
32964;SDS011;19317;48.226;11.686;2024-03-22T03:53:08;17.10;;;13.83;;
32964;SDS011;19317;48.226;11.686;2024-03-22T03:57:59;15.00;;;13.40;;
32964;SDS011;19317;48.226;11.686;2024-03-22T04:02:50;16.33;;;13.33;;
32964;SDS011;19317;48.226;11.686;2024-03-22T04:07:41;15.23;;;13.30;;
32964;SDS011;19317;48.226;11.686;2024-03-22T04:12:32;16.90;;;13.17;;
32964;SDS011;19317;48.226;11.686;2024-03-22T04:17:22;17.07;;;13.97;;
32964;SDS011;19317;48.226;11.686;2024-03-22T04:22:13;15.90;;;13.87;;
32964;SDS011;19317;48.226;11.686;2024-03-22T04:27:04;16.63;;;14.40;;
32964;SDS011;19317;48.226;11.686;2024-03-22T04:31:55;15.73;;;13.67;;
32964;SDS011;19317;48.226;11.686;2024-03-22T04:36:46;15.10;;;13.50;;
32964;SDS011;19317;48.226;11.686;2024-03-22T04:41:37;16.63;;;14.23;;
32964;SDS011;19317;48.226;11.686;2024-03-22T04:46:28;17.50;;;14.37;;
32964;SDS011;19317;48.226;11.686;2024-03-22T04:51:19;16.73;;;14.00;;
32964;SDS011;19317;48.226;11.686;2024-03-22T04:56:09;16.07;;;14.13;;
32964;SDS011;19317;48.226;11.686;2024-03-22T05:01:00;18.17;;;13.93;;
32964;SDS011;19317;48.226;11.686;2024-03-22T05:05:51;17.10;;;14.17;;
32964;SDS011;19317;48.226;11.686;2024-03-22T05:10:42;17.47;;;14.40;;
32964;SDS011;19317;48.226;11.686;2024-03-22T05:15:33;19.50;;;14.80;;
32964;SDS011;19317;48.226;11.686;2024-03-22T05:20:24;16.33;;;14.37;;
32964;SDS011;19317;48.226;11.686;2024-03-22T05:25:15;17.57;;;14.43;;
32964;SDS011;19317;48.226;11.686;2024-03-22T05:30:06;17.20;;;14.40;;
32964;SDS011;19317;48.226;11.686;2024-03-22T05:34:57;18.33;;;14.40;;
32964;SDS011;19317;48.226;11.686;2024-03-22T05:39:48;21.37;;;16.53;;
32964;SDS011;19317;48.226;11.686;2024-03-22T05:44:39;20.30;;;15.40;;
32964;SDS011;19317;48.226;11.686;2024-03-22T05:49:30;18.50;;;15.07;;
32964;SDS011;19317;48.226;11.686;2024-03-22T05:54:21;16.67;;;14.77;;
32964;SDS011;19317;48.226;11.686;2024-03-22T05:59:12;16.07;;;13.77;;
32964;SDS011;19317;48.226;11.686;2024-03-22T06:04:03;17.63;;;14.47;;
32964;SDS011;19317;48.226;11.686;2024-03-22T06:08:54;16.00;;;13.83;;
32964;SDS011;19317;48.226;11.686;2024-03-22T06:13:44;16.87;;;13.63;;
32964;SDS011;19317;48.226;11.686;2024-03-22T06:18:36;15.10;;;12.57;;
32964;SDS011;19317;48.226;11.686;2024-03-22T06:23:27;16.00;;;13.60;;
32964;SDS011;19317;48.226;11.686;2024-03-22T06:28:18;15.73;;;13.37;;
32964;SDS011;19317;48.226;11.686;2024-03-22T06:33:08;15.57;;;13.43;;
32964;SDS011;19317;48.226;11.686;2024-03-22T06:37:59;17.30;;;12.97;;
32964;SDS011;19317;48.226;11.686;2024-03-22T06:42:50;13.90;;;12.10;;
32964;SDS011;19317;48.226;11.686;2024-03-22T06:47:41;14.07;;;11.73;;
32964;SDS011;19317;48.226;11.686;2024-03-22T06:52:32;12.50;;;10.93;;
32964;SDS011;19317;48.226;11.686;2024-03-22T06:57:23;12.07;;;10.77;;
32964;SDS011;19317;48.226;11.686;2024-03-22T07:02:14;11.80;;;10.40;;
32964;SDS011;19317;48.226;11.686;2024-03-22T07:07:04;13.23;;;9.93;;
32964;SDS011;19317;48.226;11.686;2024-03-22T07:11:55;11.60;;;9.40;;
32964;SDS011;19317;48.226;11.686;2024-03-22T07:16:46;12.03;;;10.47;;
32964;SDS011;19317;48.226;11.686;2024-03-22T07:21:37;10.53;;;9.43;;
32964;SDS011;19317;48.226;11.686;2024-03-22T07:26:28;11.13;;;9.63;;
32964;SDS011;19317;48.226;11.686;2024-03-22T07:31:19;10.57;;;9.47;;
32964;SDS011;19317;48.226;11.686;2024-03-22T07:36:10;11.10;;;9.87;;
32964;SDS011;19317;48.226;11.686;2024-03-22T07:41:01;11.20;;;9.80;;
32964;SDS011;19317;48.226;11.686;2024-03-22T07:45:51;11.03;;;9.90;;
32964;SDS011;19317;48.226;11.686;2024-03-22T07:50:42;11.10;;;10.00;;
32964;SDS011;19317;48.226;11.686;2024-03-22T07:55:33;11.80;;;10.23;;
32964;SDS011;19317;48.226;11.686;2024-03-22T08:00:24;11.00;;;9.90;;
32964;SDS011;19317;48.226;11.686;2024-03-22T08:05:15;13.70;;;10.43;;
32964;SDS011;19317;48.226;11.686;2024-03-22T08:10:06;11.90;;;9.97;;
32964;SDS011;19317;48.226;11.686;2024-03-22T08:14:57;12.30;;;10.40;;
32964;SDS011;19317;48.226;11.686;2024-03-22T08:19:48;10.90;;;9.13;;
32964;SDS011;19317;48.226;11.686;2024-03-22T08:24:39;10.77;;;9.67;;
32964;SDS011;19317;48.226;11.686;2024-03-22T08:29:30;9.63;;;8.63;;
32964;SDS011;19317;48.226;11.686;2024-03-22T08:34:21;8.87;;;7.87;;
32964;SDS011;19317;48.226;11.686;2024-03-22T08:39:12;11.23;;;7.50;;
32964;SDS011;19317;48.226;11.686;2024-03-22T08:44:02;9.13;;;7.37;;
32964;SDS011;19317;48.226;11.686;2024-03-22T08:48:53;7.93;;;6.93;;
32964;SDS011;19317;48.226;11.686;2024-03-22T08:53:44;7.90;;;7.03;;
32964;SDS011;19317;48.226;11.686;2024-03-22T08:58:36;9.07;;;7.23;;
32964;SDS011;19317;48.226;11.686;2024-03-22T09:03:27;9.97;;;7.93;;
32964;SDS011;19317;48.226;11.686;2024-03-22T09:08:18;9.33;;;7.03;;
32964;SDS011;19317;48.226;11.686;2024-03-22T09:13:09;8.20;;;7.40;;
32964;SDS011;19317;48.226;11.686;2024-03-22T09:18:00;10.53;;;8.07;;
32964;SDS011;19317;48.226;11.686;2024-03-22T09:22:51;9.90;;;7.73;;
32964;SDS011;19317;48.226;11.686;2024-03-22T09:27:41;10.20;;;7.97;;
32964;SDS011;19317;48.226;11.686;2024-03-22T09:32:32;9.63;;;8.13;;
32964;SDS011;19317;48.226;11.686;2024-03-22T09:37:23;8.53;;;7.50;;
32964;SDS011;19317;48.226;11.686;2024-03-22T09:42:17;10.53;;;8.30;;
32964;SDS011;19317;48.226;11.686;2024-03-22T09:47:08;12.87;;;7.63;;
32964;SDS011;19317;48.226;11.686;2024-03-22T09:52:00;10.43;;;7.70;;
32964;SDS011;19317;48.226;11.686;2024-03-22T09:56:50;10.17;;;7.87;;
32964;SDS011;19317;48.226;11.686;2024-03-22T10:01:42;10.37;;;7.40;;
32964;SDS011;19317;48.226;11.686;2024-03-22T10:06:33;8.20;;;7.37;;
32964;SDS011;19317;48.226;11.686;2024-03-22T10:11:25;9.00;;;7.67;;
32964;SDS011;19317;48.226;11.686;2024-03-22T10:16:16;8.93;;;6.87;;
32964;SDS011;19317;48.226;11.686;2024-03-22T10:21:07;8.37;;;6.93;;
32964;SDS011;19317;48.226;11.686;2024-03-22T10:25:58;9.67;;;7.70;;
32964;SDS011;19317;48.226;11.686;2024-03-22T10:30:49;8.37;;;7.37;;
32964;SDS011;19317;48.226;11.686;2024-03-22T10:35:41;8.70;;;7.80;;
32964;SDS011;19317;48.226;11.686;2024-03-22T10:40:31;7.53;;;6.17;;
32964;SDS011;19317;48.226;11.686;2024-03-22T10:45:23;9.10;;;7.23;;
32964;SDS011;19317;48.226;11.686;2024-03-22T10:50:14;9.10;;;7.93;;
32964;SDS011;19317;48.226;11.686;2024-03-22T10:55:07;8.07;;;6.90;;
32964;SDS011;19317;48.226;11.686;2024-03-22T10:59:59;9.07;;;7.23;;
32964;SDS011;19317;48.226;11.686;2024-03-22T11:04:53;8.77;;;7.37;;
32964;SDS011;19317;48.226;11.686;2024-03-22T11:09:51;8.77;;;7.40;;
32964;SDS011;19317;48.226;11.686;2024-03-22T11:14:42;11.67;;;7.87;;
32964;SDS011;19317;48.226;11.686;2024-03-22T11:19:33;9.83;;;8.00;;
32964;SDS011;19317;48.226;11.686;2024-03-22T11:24:24;7.53;;;6.13;;
32964;SDS011;19317;48.226;11.686;2024-03-22T11:29:14;8.47;;;7.63;;
32964;SDS011;19317;48.226;11.686;2024-03-22T11:34:05;7.67;;;6.80;;
32964;SDS011;19317;48.226;11.686;2024-03-22T11:38:56;8.97;;;6.97;;
32964;SDS011;19317;48.226;11.686;2024-03-22T11:43:47;8.50;;;7.40;;
32964;SDS011;19317;48.226;11.686;2024-03-22T11:48:42;8.50;;;7.60;;
32964;SDS011;19317;48.226;11.686;2024-03-22T11:53:32;8.07;;;6.97;;
32964;SDS011;19317;48.226;11.686;2024-03-22T11:58:26;10.90;;;7.10;;
32964;SDS011;19317;48.226;11.686;2024-03-22T12:03:17;8.63;;;7.70;;
32964;SDS011;19317;48.226;11.686;2024-03-22T12:08:08;7.47;;;6.67;;
32964;SDS011;19317;48.226;11.686;2024-03-22T12:12:59;5.87;;;5.33;;
32964;SDS011;19317;48.226;11.686;2024-03-22T12:17:50;5.27;;;4.77;;
32964;SDS011;19317;48.226;11.686;2024-03-22T12:22:41;5.80;;;5.30;;
32964;SDS011;19317;48.226;11.686;2024-03-22T12:27:32;6.23;;;5.03;;
32964;SDS011;19317;48.226;11.686;2024-03-22T12:32:23;5.53;;;5.03;;
32964;SDS011;19317;48.226;11.686;2024-03-22T12:37:14;7.53;;;5.40;;
32964;SDS011;19317;48.226;11.686;2024-03-22T12:42:05;6.47;;;5.23;;
32964;SDS011;19317;48.226;11.686;2024-03-22T12:46:56;7.30;;;5.23;;
32964;SDS011;19317;48.226;11.686;2024-03-22T12:51:46;6.03;;;5.47;;
32964;SDS011;19317;48.226;11.686;2024-03-22T12:56:37;6.17;;;5.30;;
32964;SDS011;19317;48.226;11.686;2024-03-22T13:01:28;5.70;;;5.10;;
32964;SDS011;19317;48.226;11.686;2024-03-22T13:06:19;6.43;;;5.20;;
32964;SDS011;19317;48.226;11.686;2024-03-22T13:11:10;6.50;;;4.87;;
32964;SDS011;19317;48.226;11.686;2024-03-22T13:16:01;6.60;;;5.40;;
32964;SDS011;19317;48.226;11.686;2024-03-22T13:20:52;6.57;;;5.37;;
32964;SDS011;19317;48.226;11.686;2024-03-22T13:25:43;5.40;;;4.70;;
32964;SDS011;19317;48.226;11.686;2024-03-22T13:30:34;6.70;;;5.33;;
32964;SDS011;19317;48.226;11.686;2024-03-22T13:35:24;5.43;;;4.93;;
32964;SDS011;19317;48.226;11.686;2024-03-22T13:40:15;6.10;;;4.90;;
32964;SDS011;19317;48.226;11.686;2024-03-22T13:45:06;5.93;;;5.07;;
32964;SDS011;19317;48.226;11.686;2024-03-22T13:49:57;6.30;;;4.60;;
32964;SDS011;19317;48.226;11.686;2024-03-22T13:54:48;6.00;;;4.40;;
32964;SDS011;19317;48.226;11.686;2024-03-22T13:59:39;4.70;;;3.80;;
32964;SDS011;19317;48.226;11.686;2024-03-22T14:04:30;3.77;;;3.33;;
32964;SDS011;19317;48.226;11.686;2024-03-22T14:09:21;4.00;;;3.70;;
32964;SDS011;19317;48.226;11.686;2024-03-22T14:14:12;4.17;;;3.50;;
32964;SDS011;19317;48.226;11.686;2024-03-22T14:19:02;3.80;;;3.50;;
32964;SDS011;19317;48.226;11.686;2024-03-22T14:23:53;3.47;;;3.13;;
32964;SDS011;19317;48.226;11.686;2024-03-22T14:28:44;5.50;;;3.57;;
32964;SDS011;19317;48.226;11.686;2024-03-22T14:33:36;4.50;;;3.63;;
32964;SDS011;19317;48.226;11.686;2024-03-22T14:38:27;8.37;;;4.60;;
32964;SDS011;19317;48.226;11.686;2024-03-22T14:43:18;4.33;;;3.93;;
32964;SDS011;19317;48.226;11.686;2024-03-22T14:48:09;4.70;;;3.97;;
32964;SDS011;19317;48.226;11.686;2024-03-22T14:53:00;4.47;;;3.53;;
32964;SDS011;19317;48.226;11.686;2024-03-22T14:57:50;5.17;;;4.40;;
32964;SDS011;19317;48.226;11.686;2024-03-22T15:02:41;3.70;;;3.40;;
32964;SDS011;19317;48.226;11.686;2024-03-22T15:07:32;4.07;;;3.70;;
32964;SDS011;19317;48.226;11.686;2024-03-22T15:12:23;6.67;;;5.47;;
32964;SDS011;19317;48.226;11.686;2024-03-22T15:17:14;24.83;;;11.07;;
32964;SDS011;19317;48.226;11.686;2024-03-22T15:22:05;5.03;;;4.07;;
32964;SDS011;19317;48.226;11.686;2024-03-22T15:26:56;5.47;;;3.87;;
32964;SDS011;19317;48.226;11.686;2024-03-22T15:31:47;4.63;;;4.20;;
32964;SDS011;19317;48.226;11.686;2024-03-22T15:36:37;4.63;;;3.90;;
32964;SDS011;19317;48.226;11.686;2024-03-22T15:41:28;3.73;;;3.43;;
32964;SDS011;19317;48.226;11.686;2024-03-22T15:46:19;5.83;;;3.80;;
32964;SDS011;19317;48.226;11.686;2024-03-22T15:51:10;3.83;;;3.53;;
32964;SDS011;19317;48.226;11.686;2024-03-22T15:56:01;4.73;;;3.20;;
32964;SDS011;19317;48.226;11.686;2024-03-22T16:00:52;4.00;;;3.43;;
32964;SDS011;19317;48.226;11.686;2024-03-22T16:05:48;4.20;;;3.30;;
32964;SDS011;19317;48.226;11.686;2024-03-22T16:10:39;4.03;;;3.70;;
32964;SDS011;19317;48.226;11.686;2024-03-22T16:15:30;8.07;;;3.80;;
32964;SDS011;19317;48.226;11.686;2024-03-22T16:20:21;3.60;;;3.30;;
32964;SDS011;19317;48.226;11.686;2024-03-22T16:25:12;3.57;;;3.27;;
32964;SDS011;19317;48.226;11.686;2024-03-22T16:30:03;3.70;;;3.40;;
32964;SDS011;19317;48.226;11.686;2024-03-22T16:34:54;4.40;;;3.70;;
32964;SDS011;19317;48.226;11.686;2024-03-22T16:39:45;5.07;;;4.10;;
32964;SDS011;19317;48.226;11.686;2024-03-22T16:44:35;6.17;;;3.90;;
32964;SDS011;19317;48.226;11.686;2024-03-22T16:49:26;5.10;;;4.00;;
32964;SDS011;19317;48.226;11.686;2024-03-22T16:54:17;5.63;;;4.50;;
32964;SDS011;19317;48.226;11.686;2024-03-22T16:59:08;4.90;;;4.50;;
32964;SDS011;19317;48.226;11.686;2024-03-22T17:03:59;8.03;;;7.20;;
32964;SDS011;19317;48.226;11.686;2024-03-22T17:08:50;6.97;;;5.43;;
32964;SDS011;19317;48.226;11.686;2024-03-22T17:13:41;7.83;;;4.77;;
32964;SDS011;19317;48.226;11.686;2024-03-22T17:18:31;5.37;;;4.87;;
32964;SDS011;19317;48.226;11.686;2024-03-22T17:23:22;5.30;;;4.60;;
32964;SDS011;19317;48.226;11.686;2024-03-22T17:28:13;9.60;;;7.83;;
32964;SDS011;19317;48.226;11.686;2024-03-22T17:33:04;6.03;;;5.43;;
32964;SDS011;19317;48.226;11.686;2024-03-22T17:37:56;6.83;;;5.10;;
32964;SDS011;19317;48.226;11.686;2024-03-22T17:42:47;5.40;;;4.87;;
32964;SDS011;19317;48.226;11.686;2024-03-22T17:47:37;5.67;;;4.43;;
32964;SDS011;19317;48.226;11.686;2024-03-22T17:52:29;6.93;;;4.10;;
32964;SDS011;19317;48.226;11.686;2024-03-22T17:57:19;4.90;;;3.97;;
32964;SDS011;19317;48.226;11.686;2024-03-22T18:02:10;4.10;;;3.50;;
32964;SDS011;19317;48.226;11.686;2024-03-22T18:07:01;5.83;;;4.40;;
32964;SDS011;19317;48.226;11.686;2024-03-22T18:11:52;12.60;;;8.07;;
32964;SDS011;19317;48.226;11.686;2024-03-22T18:16:43;12.53;;;9.03;;
32964;SDS011;19317;48.226;11.686;2024-03-22T18:21:34;5.27;;;4.73;;
32964;SDS011;19317;48.226;11.686;2024-03-22T18:26:25;7.33;;;5.40;;
32964;SDS011;19317;48.226;11.686;2024-03-22T18:31:16;7.90;;;5.50;;
32964;SDS011;19317;48.226;11.686;2024-03-22T18:36:07;6.90;;;4.90;;
32964;SDS011;19317;48.226;11.686;2024-03-22T18:40:58;10.73;;;4.37;;
32964;SDS011;19317;48.226;11.686;2024-03-22T18:45:50;6.07;;;4.83;;
32964;SDS011;19317;48.226;11.686;2024-03-22T18:50:40;10.73;;;8.57;;
32964;SDS011;19317;48.226;11.686;2024-03-22T18:55:31;8.50;;;7.07;;
32964;SDS011;19317;48.226;11.686;2024-03-22T19:00:22;10.07;;;7.23;;
32964;SDS011;19317;48.226;11.686;2024-03-22T19:05:13;10.57;;;6.73;;
32964;SDS011;19317;48.226;11.686;2024-03-22T19:10:04;9.33;;;6.80;;
32964;SDS011;19317;48.226;11.686;2024-03-22T19:14:55;7.87;;;5.97;;
32964;SDS011;19317;48.226;11.686;2024-03-22T19:19:46;6.40;;;5.23;;
32964;SDS011;19317;48.226;11.686;2024-03-22T19:24:37;8.40;;;5.33;;
32964;SDS011;19317;48.226;11.686;2024-03-22T19:29:28;8.13;;;6.97;;
32964;SDS011;19317;48.226;11.686;2024-03-22T19:34:19;8.80;;;5.93;;
32964;SDS011;19317;48.226;11.686;2024-03-22T19:39:09;5.27;;;4.30;;
32964;SDS011;19317;48.226;11.686;2024-03-22T19:44:01;7.40;;;4.47;;
32964;SDS011;19317;48.226;11.686;2024-03-22T19:48:51;7.83;;;4.93;;
32964;SDS011;19317;48.226;11.686;2024-03-22T19:53:42;5.93;;;4.20;;
32964;SDS011;19317;48.226;11.686;2024-03-22T19:58:33;8.37;;;4.80;;
32964;SDS011;19317;48.226;11.686;2024-03-22T20:03:24;5.73;;;4.47;;
32964;SDS011;19317;48.226;11.686;2024-03-22T20:08:15;4.77;;;4.30;;
32964;SDS011;19317;48.226;11.686;2024-03-22T20:13:06;5.00;;;4.60;;
32964;SDS011;19317;48.226;11.686;2024-03-22T20:17:57;6.20;;;4.90;;
32964;SDS011;19317;48.226;11.686;2024-03-22T20:22:48;5.07;;;4.30;;
32964;SDS011;19317;48.226;11.686;2024-03-22T20:27:39;4.83;;;4.33;;
32964;SDS011;19317;48.226;11.686;2024-03-22T20:32:30;7.57;;;6.43;;
32964;SDS011;19317;48.226;11.686;2024-03-22T20:37:20;5.07;;;4.57;;
